sensor_id;sensor_type;location;lat;lon;timestamp;pressure;altitude;pressure_sealevel;temperature;humidity
71857;BME280;63344;46.980;28.882;2023-03-11T00:00:40;99018.38;;;8.52;74.05
71857;BME280;63344;46.980;28.882;2023-03-11T00:03:24;99009.75;;;8.48;74.35
71857;BME280;63344;46.980;28.882;2023-03-11T00:05:53;99013.34;;;8.47;74.94
71857;BME280;63344;46.980;28.882;2023-03-11T00:08:24;99005.50;;;8.46;75.06
71857;BME280;63344;46.980;28.882;2023-03-11T00:10:54;99008.22;;;8.44;75.52
71857;BME280;63344;46.980;28.882;2023-03-11T00:13:22;99011.63;;;8.46;75.16
71857;BME280;63344;46.980;28.882;2023-03-11T00:15:51;99017.69;;;8.48;75.16
71857;BME280;63344;46.980;28.882;2023-03-11T00:18:24;99018.31;;;8.53;74.98
71857;BME280;63344;46.980;28.882;2023-03-11T00:20:55;99014.47;;;8.59;75.03
71857;BME280;63344;46.980;28.882;2023-03-11T00:23:23;99007.09;;;8.64;74.95
71857;BME280;63344;46.980;28.882;2023-03-11T00:25:52;98985.16;;;8.62;74.70
71857;BME280;63344;46.980;28.882;2023-03-11T00:28:20;98988.22;;;8.70;74.51
71857;BME280;63344;46.980;28.882;2023-03-11T00:30:51;98984.44;;;8.74;74.58
71857;BME280;63344;46.980;28.882;2023-03-11T00:33:18;98980.88;;;8.75;74.39
71857;BME280;63344;46.980;28.882;2023-03-11T00:35:46;98975.38;;;8.78;75.14
71857;BME280;63344;46.980;28.882;2023-03-11T00:38:15;98972.50;;;8.83;75.29
71857;BME280;63344;46.980;28.882;2023-03-11T00:40:45;98960.69;;;8.89;75.19
71857;BME280;63344;46.980;28.882;2023-03-11T00:43:13;98966.00;;;8.89;74.93
71857;BME280;63344;46.980;28.882;2023-03-11T00:45:42;98960.69;;;8.89;75.62
71857;BME280;63344;46.980;28.882;2023-03-11T00:48:10;98956.25;;;8.89;76.21
71857;BME280;63344;46.980;28.882;2023-03-11T00:50:39;98952.84;;;8.87;76.68
71857;BME280;63344;46.980;28.882;2023-03-11T00:53:06;98957.47;;;8.84;77.04
71857;BME280;63344;46.980;28.882;2023-03-11T00:55:34;98954.88;;;8.82;78.18
71857;BME280;63344;46.980;28.882;2023-03-11T00:58:04;98956.09;;;8.76;78.67
71857;BME280;63344;46.980;28.882;2023-03-11T01:00:33;98970.44;;;8.72;79.63
71857;BME280;63344;46.980;28.882;2023-03-11T01:03:01;98959.47;;;8.64;80.47
71857;BME280;63344;46.980;28.882;2023-03-11T01:05:31;98951.13;;;8.56;82.58
71857;BME280;63344;46.980;28.882;2023-03-11T01:07:58;98936.63;;;8.47;84.48
71857;BME280;63344;46.980;28.882;2023-03-11T01:10:27;98914.50;;;8.32;86.14
71857;BME280;63344;46.980;28.882;2023-03-11T01:12:55;98882.78;;;8.16;88.05
71857;BME280;63344;46.980;28.882;2023-03-11T01:15:31;98853.66;;;8.02;89.45
71857;BME280;63344;46.980;28.882;2023-03-11T01:18:00;98850.88;;;7.89;90.77
71857;BME280;63344;46.980;28.882;2023-03-11T01:20:27;98867.66;;;7.88;91.45
71857;BME280;63344;46.980;28.882;2023-03-11T01:22:55;98877.28;;;7.89;91.28
71857;BME280;63344;46.980;28.882;2023-03-11T01:25:23;98890.16;;;7.95;91.24
71857;BME280;63344;46.980;28.882;2023-03-11T01:27:51;98873.19;;;8.00;91.33
71857;BME280;63344;46.980;28.882;2023-03-11T01:30:23;98874.03;;;8.00;91.69
71857;BME280;63344;46.980;28.882;2023-03-11T01:32:52;98877.38;;;8.04;92.01
71857;BME280;63344;46.980;28.882;2023-03-11T01:35:22;98870.97;;;8.08;91.83
71857;BME280;63344;46.980;28.882;2023-03-11T01:37:50;98852.63;;;8.05;91.89
71857;BME280;63344;46.980;28.882;2023-03-11T01:40:53;98854.81;;;8.12;91.75
71857;BME280;63344;46.980;28.882;2023-03-11T01:48:36;98836.09;;;8.01;93.16
71857;BME280;63344;46.980;28.882;2023-03-11T01:51:05;98839.50;;;8.03;93.50
71857;BME280;63344;46.980;28.882;2023-03-11T01:53:33;98835.06;;;8.04;93.87
71857;BME280;63344;46.980;28.882;2023-03-11T01:56:02;98822.69;;;8.04;93.92
71857;BME280;63344;46.980;28.882;2023-03-11T01:58:34;98819.69;;;8.10;94.06
71857;BME280;63344;46.980;28.882;2023-03-11T02:01:04;98811.59;;;8.13;94.12
71857;BME280;63344;46.980;28.882;2023-03-11T02:03:35;98771.09;;;8.13;94.14
71857;BME280;63344;46.980;28.882;2023-03-11T02:06:07;98779.19;;;8.10;94.54
71857;BME280;63344;46.980;28.882;2023-03-11T02:08:35;98758.13;;;8.08;94.83
71857;BME280;63344;46.980;28.882;2023-03-11T02:11:04;98759.16;;;8.06;95.07
71857;BME280;63344;46.980;28.882;2023-03-11T02:13:33;98768.88;;;8.05;95.18
71857;BME280;63344;46.980;28.882;2023-03-11T02:16:02;98781.56;;;8.14;95.31
71857;BME280;63344;46.980;28.882;2023-03-11T02:18:30;98777.03;;;8.16;95.33
71857;BME280;63344;46.980;28.882;2023-03-11T02:23:31;98833.91;;;8.24;95.19
71857;BME280;63344;46.980;28.882;2023-03-11T02:26:08;98768.66;;;8.24;94.94
71857;BME280;63344;46.980;28.882;2023-03-11T02:28:38;98763.16;;;8.13;95.89
71857;BME280;63344;46.980;28.882;2023-03-11T02:31:06;98746.78;;;8.06;96.82
71857;BME280;63344;46.980;28.882;2023-03-11T02:33:35;98717.38;;;7.96;97.61
71857;BME280;63344;46.980;28.882;2023-03-11T02:36:03;98710.19;;;7.84;98.37
71857;BME280;63344;46.980;28.882;2023-03-11T02:38:30;98698.00;;;7.82;99.13
71857;BME280;63344;46.980;28.882;2023-03-11T02:40:59;98699.91;;;7.80;99.55
71857;BME280;63344;46.980;28.882;2023-03-11T02:43:40;98706.97;;;7.79;100.00
71857;BME280;63344;46.980;28.882;2023-03-11T02:46:10;98698.38;;;7.75;100.00
71857;BME280;63344;46.980;28.882;2023-03-11T02:48:38;98710.63;;;7.76;100.00
71857;BME280;63344;46.980;28.882;2023-03-11T02:51:05;98700.06;;;7.76;100.00
71857;BME280;63344;46.980;28.882;2023-03-11T02:53:38;98698.69;;;7.85;100.00
71857;BME280;63344;46.980;28.882;2023-03-11T02:56:07;98705.66;;;7.86;100.00
71857;BME280;63344;46.980;28.882;2023-03-11T02:58:34;98700.22;;;7.89;100.00
71857;BME280;63344;46.980;28.882;2023-03-11T03:01:03;98700.78;;;7.94;100.00
71857;BME280;63344;46.980;28.882;2023-03-11T03:03:30;98696.34;;;7.95;100.00
71857;BME280;63344;46.980;28.882;2023-03-11T03:05:57;98693.44;;;8.00;100.00
71857;BME280;63344;46.980;28.882;2023-03-11T03:08:28;98691.94;;;8.10;100.00
71857;BME280;63344;46.980;28.882;2023-03-11T03:10:57;98684.75;;;8.12;100.00
71857;BME280;63344;46.980;28.882;2023-03-11T03:13:26;98676.75;;;8.13;100.00
71857;BME280;63344;46.980;28.882;2023-03-11T03:15:54;98675.91;;;8.13;100.00
71857;BME280;63344;46.980;28.882;2023-03-11T03:18:21;98672.13;;;8.17;100.00
71857;BME280;63344;46.980;28.882;2023-03-11T03:20:50;98664.19;;;8.17;100.00
71857;BME280;63344;46.980;28.882;2023-03-11T03:23:18;98670.72;;;8.26;100.00
71857;BME280;63344;46.980;28.882;2023-03-11T03:25:45;98664.50;;;8.27;100.00
71857;BME280;63344;46.980;28.882;2023-03-11T03:28:13;98656.28;;;8.31;100.00
71857;BME280;63344;46.980;28.882;2023-03-11T03:30:40;98653.63;;;8.31;100.00
71857;BME280;63344;46.980;28.882;2023-03-11T03:33:08;98651.06;;;8.30;100.00
71857;BME280;63344;46.980;28.882;2023-03-11T03:35:35;98641.72;;;8.24;100.00
71857;BME280;63344;46.980;28.882;2023-03-11T03:38:06;98644.84;;;8.31;100.00
71857;BME280;63344;46.980;28.882;2023-03-11T03:40:33;98636.03;;;8.30;100.00
71857;BME280;63344;46.980;28.882;2023-03-11T03:43:01;98630.88;;;8.29;99.90
71857;BME280;63344;46.980;28.882;2023-03-11T03:45:28;98629.06;;;8.29;99.80
71857;BME280;63344;46.980;28.882;2023-03-11T03:47:56;98625.66;;;8.27;99.21
71857;BME280;63344;46.980;28.882;2023-03-11T03:50:23;98623.19;;;8.24;99.17
71857;BME280;63344;46.980;28.882;2023-03-11T03:52:50;98623.94;;;8.26;99.80
71857;BME280;63344;46.980;28.882;2023-03-11T03:55:17;98623.78;;;8.29;99.67
71857;BME280;63344;46.980;28.882;2023-03-11T03:57:45;98611.31;;;8.31;100.00
71857;BME280;63344;46.980;28.882;2023-03-11T04:00:12;98611.84;;;8.36;99.78
71857;BME280;63344;46.980;28.882;2023-03-11T04:02:40;98612.59;;;8.38;99.77
71857;BME280;63344;46.980;28.882;2023-03-11T04:05:08;98605.53;;;8.39;99.77
71857;BME280;63344;46.980;28.882;2023-03-11T04:07:35;98605.28;;;8.44;99.95
71857;BME280;63344;46.980;28.882;2023-03-11T04:10:03;98596.94;;;8.50;100.00
71857;BME280;63344;46.980;28.882;2023-03-11T04:12:31;98602.91;;;8.53;100.00
71857;BME280;63344;46.980;28.882;2023-03-11T04:14:58;98611.50;;;8.57;100.00
71857;BME280;63344;46.980;28.882;2023-03-11T04:17:25;98599.66;;;8.63;100.00
71857;BME280;63344;46.980;28.882;2023-03-11T04:19:53;98600.31;;;8.66;100.00
71857;BME280;63344;46.980;28.882;2023-03-11T04:22:20;98591.44;;;8.67;100.00
71857;BME280;63344;46.980;28.882;2023-03-11T04:24:47;98586.16;;;8.67;99.82
71857;BME280;63344;46.980;28.882;2023-03-11T04:27:15;98586.06;;;8.69;99.76
71857;BME280;63344;46.980;28.882;2023-03-11T04:29:42;98582.75;;;8.65;99.51
71857;BME280;63344;46.980;28.882;2023-03-11T04:32:09;98583.28;;;8.70;99.68
71857;BME280;63344;46.980;28.882;2023-03-11T04:34:36;98578.75;;;8.72;99.40
71857;BME280;63344;46.980;28.882;2023-03-11T04:37:04;98575.19;;;8.73;99.61
71857;BME280;63344;46.980;28.882;2023-03-11T04:39:31;98568.81;;;8.76;99.31
71857;BME280;63344;46.980;28.882;2023-03-11T04:41:58;98565.13;;;8.78;99.85
71857;BME280;63344;46.980;28.882;2023-03-11T04:44:29;98565.78;;;8.82;99.67
71857;BME280;63344;46.980;28.882;2023-03-11T04:46:56;98560.47;;;8.82;99.58
71857;BME280;63344;46.980;28.882;2023-03-11T04:49:25;98560.41;;;8.84;99.41
71857;BME280;63344;46.980;28.882;2023-03-11T04:51:52;98549.72;;;8.85;99.82
71857;BME280;63344;46.980;28.882;2023-03-11T04:54:19;98556.59;;;8.88;99.74
71857;BME280;63344;46.980;28.882;2023-03-11T04:56:47;98559.69;;;8.94;99.98
71857;BME280;63344;46.980;28.882;2023-03-11T04:59:17;98556.84;;;8.97;100.00
71857;BME280;63344;46.980;28.882;2023-03-11T05:01:44;98556.44;;;9.04;100.00
71857;BME280;63344;46.980;28.882;2023-03-11T05:04:12;98547.44;;;9.06;100.00
71857;BME280;63344;46.980;28.882;2023-03-11T05:06:40;98557.75;;;9.11;100.00
71857;BME280;63344;46.980;28.882;2023-03-11T05:09:08;98549.69;;;9.12;100.00
71857;BME280;63344;46.980;28.882;2023-03-11T05:11:37;98546.84;;;9.15;100.00
71857;BME280;63344;46.980;28.882;2023-03-11T05:14:04;98544.28;;;9.14;100.00
71857;BME280;63344;46.980;28.882;2023-03-11T05:16:32;98549.16;;;9.20;100.00
71857;BME280;63344;46.980;28.882;2023-03-11T05:18:59;98541.56;;;9.28;100.00
71857;BME280;63344;46.980;28.882;2023-03-11T05:21:31;98535.97;;;9.33;100.00
71857;BME280;63344;46.980;28.882;2023-03-11T05:23:59;98530.44;;;9.36;100.00
71857;BME280;63344;46.980;28.882;2023-03-11T05:26:27;98522.31;;;9.39;99.95
71857;BME280;63344;46.980;28.882;2023-03-11T05:28:54;98515.28;;;9.38;99.72
71857;BME280;63344;46.980;28.882;2023-03-11T05:31:22;98522.41;;;9.50;99.83
71857;BME280;63344;46.980;28.882;2023-03-11T05:33:49;98517.56;;;9.57;99.67
71857;BME280;63344;46.980;28.882;2023-03-11T05:36:17;98528.81;;;9.61;99.60
71857;BME280;63344;46.980;28.882;2023-03-11T05:38:45;98523.06;;;9.67;99.57
71857;BME280;63344;46.980;28.882;2023-03-11T05:41:12;98523.69;;;9.70;99.10
71857;BME280;63344;46.980;28.882;2023-03-11T05:43:41;98511.41;;;9.69;99.11
71857;BME280;63344;46.980;28.882;2023-03-11T05:46:24;98509.91;;;9.78;98.85
71857;BME280;63344;46.980;28.882;2023-03-11T05:48:51;98517.31;;;9.86;98.99
71857;BME280;63344;46.980;28.882;2023-03-11T05:51:19;98496.53;;;9.80;98.59
71857;BME280;63344;46.980;28.882;2023-03-11T05:53:47;98494.84;;;9.91;98.64
71857;BME280;63344;46.980;28.882;2023-03-11T05:56:18;98492.72;;;9.96;98.46
71857;BME280;63344;46.980;28.882;2023-03-11T05:58:47;98487.50;;;10.08;99.03
71857;BME280;63344;46.980;28.882;2023-03-11T06:01:17;98489.25;;;10.20;98.55
71857;BME280;63344;46.980;28.882;2023-03-11T06:03:44;98491.59;;;10.25;97.21
71857;BME280;63344;46.980;28.882;2023-03-11T06:06:12;98491.72;;;10.23;96.86
71857;BME280;63344;46.980;28.882;2023-03-11T06:08:39;98494.00;;;10.28;96.66
71857;BME280;63344;46.980;28.882;2023-03-11T06:11:12;98490.13;;;10.33;96.96
71857;BME280;63344;46.980;28.882;2023-03-11T06:13:40;98478.22;;;10.39;97.10
71857;BME280;63344;46.980;28.882;2023-03-11T06:16:07;98458.66;;;10.40;96.34
71857;BME280;63344;46.980;28.882;2023-03-11T06:18:35;98470.34;;;10.38;95.94
71857;BME280;63344;46.980;28.882;2023-03-11T06:21:03;98461.94;;;10.44;96.56
71857;BME280;63344;46.980;28.882;2023-03-11T06:23:30;98450.59;;;10.42;95.51
71857;BME280;63344;46.980;28.882;2023-03-11T06:26:00;98463.19;;;10.51;95.94
71857;BME280;63344;46.980;28.882;2023-03-11T06:28:28;98462.75;;;10.57;95.75
71857;BME280;63344;46.980;28.882;2023-03-11T06:30:58;98451.28;;;10.56;96.10
71857;BME280;63344;46.980;28.882;2023-03-11T06:33:32;98446.47;;;10.62;95.08
71857;BME280;63344;46.980;28.882;2023-03-11T06:36:00;98457.38;;;10.70;94.40
71857;BME280;63344;46.980;28.882;2023-03-11T06:38:28;98457.38;;;10.70;94.09
71857;BME280;63344;46.980;28.882;2023-03-11T06:44:38;98443.06;;;10.84;92.68
71857;BME280;63344;46.980;28.882;2023-03-11T06:47:05;98449.16;;;10.97;92.84
71857;BME280;63344;46.980;28.882;2023-03-11T06:49:32;98452.19;;;11.04;92.76
71857;BME280;63344;46.980;28.882;2023-03-11T06:52:00;98436.03;;;11.07;91.99
71857;BME280;63344;46.980;28.882;2023-03-11T06:54:30;98448.38;;;11.19;91.64
71857;BME280;63344;46.980;28.882;2023-03-11T06:56:58;98434.72;;;11.24;90.45
71857;BME280;63344;46.980;28.882;2023-03-11T06:59:25;98429.53;;;11.33;90.38
71857;BME280;63344;46.980;28.882;2023-03-11T07:02:04;98446.00;;;11.39;88.95
71857;BME280;63344;46.980;28.882;2023-03-11T07:04:32;98427.38;;;11.39;88.67
71857;BME280;63344;46.980;28.882;2023-03-11T07:07:02;98432.56;;;11.40;88.20
71857;BME280;63344;46.980;28.882;2023-03-11T07:09:29;98424.47;;;11.42;87.40
71857;BME280;63344;46.980;28.882;2023-03-11T07:11:57;98419.88;;;11.44;87.60
71857;BME280;63344;46.980;28.882;2023-03-11T07:14:24;98413.97;;;11.51;86.66
71857;BME280;63344;46.980;28.882;2023-03-11T07:16:52;98394.91;;;11.46;87.25
71857;BME280;63344;46.980;28.882;2023-03-11T07:19:19;98398.53;;;11.56;87.56
71857;BME280;63344;46.980;28.882;2023-03-11T07:21:47;98398.75;;;11.65;87.15
71857;BME280;63344;46.980;28.882;2023-03-11T07:24:14;98394.63;;;11.72;88.03
71857;BME280;63344;46.980;28.882;2023-03-11T07:26:42;98388.34;;;11.84;88.05
71857;BME280;63344;46.980;28.882;2023-03-11T07:29:10;98391.28;;;11.92;86.15
71857;BME280;63344;46.980;28.882;2023-03-11T07:31:38;98380.97;;;11.99;85.99
71857;BME280;63344;46.980;28.882;2023-03-11T07:34:06;98378.75;;;12.15;84.14
71857;BME280;63344;46.980;28.882;2023-03-11T07:36:41;98373.28;;;12.28;85.41
71857;BME280;63344;46.980;28.882;2023-03-11T07:39:13;98374.94;;;12.41;83.57
71857;BME280;63344;46.980;28.882;2023-03-11T07:41:42;98379.78;;;12.35;83.38
71857;BME280;63344;46.980;28.882;2023-03-11T07:44:12;98371.19;;;12.32;83.89
71857;BME280;63344;46.980;28.882;2023-03-11T07:46:40;98362.56;;;12.40;83.26
71857;BME280;63344;46.980;28.882;2023-03-11T07:49:08;98355.47;;;12.40;83.77
71857;BME280;63344;46.980;28.882;2023-03-11T07:51:37;98353.97;;;12.47;83.31
71857;BME280;63344;46.980;28.882;2023-03-11T07:54:05;98347.47;;;12.61;84.16
71857;BME280;63344;46.980;28.882;2023-03-11T07:56:33;98337.88;;;12.70;83.88
71857;BME280;63344;46.980;28.882;2023-03-11T07:59:04;98339.44;;;12.93;82.73
71857;BME280;63344;46.980;28.882;2023-03-11T08:01:33;98335.56;;;13.07;82.80
71857;BME280;63344;46.980;28.882;2023-03-11T08:04:04;98325.97;;;13.26;81.71
71857;BME280;63344;46.980;28.882;2023-03-11T08:06:34;98330.56;;;13.35;81.64
71857;BME280;63344;46.980;28.882;2023-03-11T08:09:09;98325.53;;;13.42;80.45
71857;BME280;63344;46.980;28.882;2023-03-11T08:11:54;98334.72;;;13.59;80.40
71857;BME280;63344;46.980;28.882;2023-03-11T08:14:24;98326.75;;;13.68;78.97
71857;BME280;63344;46.980;28.882;2023-03-11T08:16:52;98334.25;;;13.94;79.37
71857;BME280;63344;46.980;28.882;2023-03-11T08:19:20;98320.38;;;14.10;79.83
71857;BME280;63344;46.980;28.882;2023-03-11T08:21:48;98319.25;;;14.22;77.24
71857;BME280;63344;46.980;28.882;2023-03-11T08:24:16;98314.19;;;14.29;78.20
71857;BME280;63344;46.980;28.882;2023-03-11T08:27:13;98315.47;;;14.44;77.19
71857;BME280;63344;46.980;28.882;2023-03-11T08:29:42;98308.28;;;14.54;77.13
71857;BME280;63344;46.980;28.882;2023-03-11T08:32:16;98308.13;;;14.76;76.73
71857;BME280;63344;46.980;28.882;2023-03-11T08:34:45;98302.47;;;14.98;77.06
71857;BME280;63344;46.980;28.882;2023-03-11T08:37:13;98295.44;;;15.34;76.08
71857;BME280;63344;46.980;28.882;2023-03-11T08:39:46;98297.09;;;15.73;74.34
71857;BME280;63344;46.980;28.882;2023-03-11T08:42:16;98300.84;;;16.26;69.85
71857;BME280;63344;46.980;28.882;2023-03-11T08:45:23;98296.16;;;17.50;65.30
71857;BME280;63344;46.980;28.882;2023-03-11T08:48:11;98290.41;;;18.88;62.43
71857;BME280;63344;46.980;28.882;2023-03-11T08:50:57;98302.78;;;20.01;57.58
71857;BME280;63344;46.980;28.882;2023-03-11T08:53:53;98296.00;;;19.82;57.40
71857;BME280;63344;46.980;28.882;2023-03-11T08:56:23;98283.19;;;19.44;58.75
71857;BME280;63344;46.980;28.882;2023-03-11T08:58:53;98287.53;;;18.98;58.16
71857;BME280;63344;46.980;28.882;2023-03-11T09:01:20;98280.81;;;18.28;60.13
71857;BME280;63344;46.980;28.882;2023-03-11T09:03:48;98284.28;;;17.87;61.35
71857;BME280;63344;46.980;28.882;2023-03-11T09:06:21;98283.69;;;17.76;61.86
71857;BME280;63344;46.980;28.882;2023-03-11T09:08:49;98292.16;;;17.55;60.24
71857;BME280;63344;46.980;28.882;2023-03-11T09:11:17;98285.81;;;17.56;60.99
71857;BME280;63344;46.980;28.882;2023-03-11T09:13:48;98288.97;;;17.85;59.90
71857;BME280;63344;46.980;28.882;2023-03-11T09:16:20;98290.94;;;19.31;55.20
71857;BME280;63344;46.980;28.882;2023-03-11T09:18:48;98286.59;;;20.09;53.04
71857;BME280;63344;46.980;28.882;2023-03-11T09:21:21;98283.31;;;19.90;53.87
71857;BME280;63344;46.980;28.882;2023-03-11T09:23:48;98287.38;;;19.47;54.33
71857;BME280;63344;46.980;28.882;2023-03-11T09:26:16;98291.38;;;18.87;54.80
71857;BME280;63344;46.980;28.882;2023-03-11T09:28:44;98283.84;;;18.41;55.29
71857;BME280;63344;46.980;28.882;2023-03-11T09:31:16;98286.97;;;18.04;57.02
71857;BME280;63344;46.980;28.882;2023-03-11T09:33:44;98277.97;;;17.70;58.18
71857;BME280;63344;46.980;28.882;2023-03-11T09:36:14;98281.31;;;17.64;58.48
71857;BME280;63344;46.980;28.882;2023-03-11T09:38:42;98284.09;;;17.46;57.79
71857;BME280;63344;46.980;28.882;2023-03-11T09:44:15;98285.13;;;16.93;59.56
71857;BME280;63344;46.980;28.882;2023-03-11T09:49:53;98271.63;;;16.59;61.07
71857;BME280;63344;46.980;28.882;2023-03-11T09:58:21;98274.34;;;16.41;61.56
71857;BME280;63344;46.980;28.882;2023-03-11T10:00:52;98264.19;;;16.26;61.59
71857;BME280;63344;46.980;28.882;2023-03-11T10:04:13;98263.56;;;16.15;62.09
71857;BME280;63344;46.980;28.882;2023-03-11T10:06:44;98272.28;;;15.99;62.16
71857;BME280;63344;46.980;28.882;2023-03-11T10:20:54;98254.78;;;15.59;64.40
71857;BME280;63344;46.980;28.882;2023-03-11T10:23:48;98258.13;;;15.61;64.73
71857;BME280;63344;46.980;28.882;2023-03-11T10:26:30;98256.06;;;15.54;64.36
71857;BME280;63344;46.980;28.882;2023-03-11T10:29:24;98242.59;;;15.46;64.87
71857;BME280;63344;46.980;28.882;2023-03-11T10:32:06;98228.81;;;15.41;65.19
71857;BME280;63344;46.980;28.882;2023-03-11T10:35:04;98225.59;;;15.38;64.92
71857;BME280;63344;46.980;28.882;2023-03-11T10:37:36;98217.56;;;15.38;64.98
71857;BME280;63344;46.980;28.882;2023-03-11T10:40:29;98213.78;;;15.40;64.78
71857;BME280;63344;46.980;28.882;2023-03-11T10:43:02;98228.66;;;15.43;65.18
71857;BME280;63344;46.980;28.882;2023-03-11T10:45:39;98217.41;;;15.39;65.49
71857;BME280;63344;46.980;28.882;2023-03-11T10:48:16;98210.25;;;15.40;65.17
71857;BME280;63344;46.980;28.882;2023-03-11T10:51:01;98219.34;;;15.47;65.63
71857;BME280;63344;46.980;28.882;2023-03-11T10:56:40;98208.63;;;15.29;68.25
71857;BME280;63344;46.980;28.882;2023-03-11T10:59:32;98209.75;;;15.26;68.15
71857;BME280;63344;46.980;28.882;2023-03-11T11:02:21;98195.25;;;15.29;68.78
71857;BME280;63344;46.980;28.882;2023-03-11T11:05:22;98190.03;;;15.27;68.29
71857;BME280;63344;46.980;28.882;2023-03-11T11:07:48;98188.59;;;15.33;68.17
71857;BME280;63344;46.980;28.882;2023-03-11T11:10:21;98196.47;;;15.34;68.85
71857;BME280;63344;46.980;28.882;2023-03-11T11:16:03;98170.34;;;15.28;68.76
71857;BME280;63344;46.980;28.882;2023-03-11T11:18:41;98173.09;;;15.37;69.08
71857;BME280;63344;46.980;28.882;2023-03-11T11:21:27;98162.63;;;15.43;69.77
71857;BME280;63344;46.980;28.882;2023-03-11T11:24:11;98157.91;;;15.55;70.05
71857;BME280;63344;46.980;28.882;2023-03-11T11:26:41;98157.47;;;15.60;69.54
71857;BME280;63344;46.980;28.882;2023-03-11T11:31:44;98136.28;;;15.66;67.69
71857;BME280;63344;46.980;28.882;2023-03-11T11:37:00;98147.78;;;15.77;66.55
71857;BME280;63344;46.980;28.882;2023-03-11T11:39:32;98134.84;;;15.72;66.53
71857;BME280;63344;46.980;28.882;2023-03-11T11:42:05;98143.78;;;15.81;67.06
71857;BME280;63344;46.980;28.882;2023-03-11T11:44:34;98138.75;;;15.78;66.73
71857;BME280;63344;46.980;28.882;2023-03-11T11:47:16;98134.69;;;15.73;67.54
71857;BME280;63344;46.980;28.882;2023-03-11T11:50:05;98128.72;;;15.62;67.59
71857;BME280;63344;46.980;28.882;2023-03-11T11:52:41;98130.09;;;15.66;67.75
71857;BME280;63344;46.980;28.882;2023-03-11T11:55:31;98117.00;;;15.63;67.52
71857;BME280;63344;46.980;28.882;2023-03-11T11:57:59;98116.38;;;15.69;67.92
71857;BME280;63344;46.980;28.882;2023-03-11T12:00:53;98112.50;;;15.63;68.36
71857;BME280;63344;46.980;28.882;2023-03-11T12:06:21;98111.13;;;15.77;68.31
71857;BME280;63344;46.980;28.882;2023-03-11T12:11:45;98109.31;;;15.78;67.61
71857;BME280;63344;46.980;28.882;2023-03-11T12:17:08;98096.69;;;15.70;67.53
71857;BME280;63344;46.980;28.882;2023-03-11T12:20:17;98095.31;;;15.66;67.45
71857;BME280;63344;46.980;28.882;2023-03-11T12:22:56;98098.59;;;15.60;67.89
71857;BME280;63344;46.980;28.882;2023-03-11T12:25:36;98107.91;;;15.56;68.02
71857;BME280;63344;46.980;28.882;2023-03-11T12:28:29;98117.91;;;15.53;68.70
71857;BME280;63344;46.980;28.882;2023-03-11T12:31:04;98111.59;;;15.54;69.34
71857;BME280;63344;46.980;28.882;2023-03-11T12:33:44;98113.19;;;15.47;69.85
71857;BME280;63344;46.980;28.882;2023-03-11T12:36:37;98110.91;;;15.34;69.98
71857;BME280;63344;46.980;28.882;2023-03-11T12:39:07;98110.97;;;15.25;70.37
71857;BME280;63344;46.980;28.882;2023-03-11T12:41:45;98103.16;;;15.13;70.39
71857;BME280;63344;46.980;28.882;2023-03-11T12:44:21;98112.09;;;15.04;70.32
71857;BME280;63344;46.980;28.882;2023-03-11T12:49:27;98111.72;;;14.89;71.15
71857;BME280;63344;46.980;28.882;2023-03-11T12:54:43;98102.56;;;14.74;71.97
71857;BME280;63344;46.980;28.882;2023-03-11T13:07:59;98101.25;;;14.41;74.41
71857;BME280;63344;46.980;28.882;2023-03-11T13:10:48;98096.19;;;14.38;74.11
71857;BME280;63344;46.980;28.882;2023-03-11T13:18:47;98095.59;;;14.44;75.53
71857;BME280;63344;46.980;28.882;2023-03-11T13:40:37;98067.56;;;14.30;74.70
71857;BME280;63344;46.980;28.882;2023-03-11T13:45:39;98062.22;;;14.30;74.85
71857;BME280;63344;46.980;28.882;2023-03-11T13:48:15;98061.38;;;14.29;74.46
71857;BME280;63344;46.980;28.882;2023-03-11T13:50:59;98067.44;;;14.22;74.71
71857;BME280;63344;46.980;28.882;2023-03-11T13:53:41;98048.13;;;14.10;75.05
71857;BME280;63344;46.980;28.882;2023-03-11T13:56:23;98063.13;;;14.11;75.35
71857;BME280;63344;46.980;28.882;2023-03-11T13:58:51;98062.28;;;14.10;74.75
71857;BME280;63344;46.980;28.882;2023-03-11T14:01:19;98060.75;;;14.08;75.17
71857;BME280;63344;46.980;28.882;2023-03-11T14:03:46;98053.03;;;14.05;75.11
71857;BME280;63344;46.980;28.882;2023-03-11T14:06:17;98068.03;;;14.06;75.68
71857;BME280;63344;46.980;28.882;2023-03-11T14:08:56;98078.34;;;14.01;75.78
71857;BME280;63344;46.980;28.882;2023-03-11T14:11:25;98086.63;;;13.98;76.55
71857;BME280;63344;46.980;28.882;2023-03-11T14:13:53;98080.88;;;13.92;76.98
71857;BME280;63344;46.980;28.882;2023-03-11T14:16:36;98069.91;;;13.86;77.61
71857;BME280;63344;46.980;28.882;2023-03-11T14:19:16;98064.63;;;13.76;79.02
71857;BME280;63344;46.980;28.882;2023-03-11T14:21:48;98056.22;;;13.61;80.50
71857;BME280;63344;46.980;28.882;2023-03-11T14:24:20;98067.19;;;13.48;81.72
71857;BME280;63344;46.980;28.882;2023-03-11T14:26:50;98065.91;;;13.33;83.26
71857;BME280;63344;46.980;28.882;2023-03-11T14:29:37;98074.72;;;13.14;85.20
71857;BME280;63344;46.980;28.882;2023-03-11T14:32:26;98100.47;;;12.94;86.88
71857;BME280;63344;46.980;28.882;2023-03-11T14:34:55;98078.13;;;12.66;88.27
71857;BME280;63344;46.980;28.882;2023-03-11T14:37:36;98090.25;;;12.49;89.72
71857;BME280;63344;46.980;28.882;2023-03-11T14:40:22;98117.44;;;12.43;90.15
71857;BME280;63344;46.980;28.882;2023-03-11T14:42:50;98108.41;;;12.34;90.93
71857;BME280;63344;46.980;28.882;2023-03-11T14:45:24;98101.94;;;12.27;91.46
71857;BME280;63344;46.980;28.882;2023-03-11T14:50:32;98102.53;;;12.09;93.17
71857;BME280;63344;46.980;28.882;2023-03-11T14:58:31;98104.63;;;12.06;92.77
71857;BME280;63344;46.980;28.882;2023-03-11T15:03:50;98106.03;;;12.10;92.18
71857;BME280;63344;46.980;28.882;2023-03-11T15:06:22;98102.28;;;12.12;92.19